sensor_id;sensor_type;location;lat;lon;timestamp;P1;durP1;ratioP1;P2;durP2;ratioP2
23720;SDS011;42950;52.134;5.578;2023-05-16T00:00:30;11.52;;;2.50;;
23720;SDS011;42950;52.134;5.578;2023-05-16T00:02:59;12.65;;;2.58;;
23720;SDS011;42950;52.134;5.578;2023-05-16T00:05:25;18.60;;;3.25;;
23720;SDS011;42950;52.134;5.578;2023-05-16T00:07:51;17.50;;;2.72;;
23720;SDS011;42950;52.134;5.578;2023-05-16T00:10:17;10.68;;;2.00;;
23720;SDS011;42950;52.134;5.578;2023-05-16T00:12:42;16.92;;;2.90;;
23720;SDS011;42950;52.134;5.578;2023-05-16T00:15:09;12.15;;;2.58;;
23720;SDS011;42950;52.134;5.578;2023-05-16T00:17:40;16.40;;;2.65;;
23720;SDS011;42950;52.134;5.578;2023-05-16T00:20:07;14.57;;;2.45;;
23720;SDS011;42950;52.134;5.578;2023-05-16T00:22:35;14.13;;;2.85;;
23720;SDS011;42950;52.134;5.578;2023-05-16T00:25:02;14.45;;;2.50;;
23720;SDS011;42950;52.134;5.578;2023-05-16T00:27:28;9.98;;;2.20;;
23720;SDS011;42950;52.134;5.578;2023-05-16T00:29:54;12.02;;;2.45;;
23720;SDS011;42950;52.134;5.578;2023-05-16T00:32:20;12.20;;;2.53;;
23720;SDS011;42950;52.134;5.578;2023-05-16T00:34:46;13.98;;;2.60;;
23720;SDS011;42950;52.134;5.578;2023-05-16T00:37:13;14.98;;;2.30;;
23720;SDS011;42950;52.134;5.578;2023-05-16T00:39:38;12.63;;;2.60;;
23720;SDS011;42950;52.134;5.578;2023-05-16T00:42:05;17.30;;;3.05;;
23720;SDS011;42950;52.134;5.578;2023-05-16T00:44:31;14.32;;;2.78;;
23720;SDS011;42950;52.134;5.578;2023-05-16T00:46:58;11.45;;;2.30;;
23720;SDS011;42950;52.134;5.578;2023-05-16T00:49:25;11.60;;;2.58;;
23720;SDS011;42950;52.134;5.578;2023-05-16T00:51:51;12.10;;;2.30;;
23720;SDS011;42950;52.134;5.578;2023-05-16T00:54:18;11.23;;;2.20;;
23720;SDS011;42950;52.134;5.578;2023-05-16T00:56:47;12.02;;;2.00;;
23720;SDS011;42950;52.134;5.578;2023-05-16T00:59:13;15.02;;;2.20;;
23720;SDS011;42950;52.134;5.578;2023-05-16T01:01:41;15.50;;;2.20;;
23720;SDS011;42950;52.134;5.578;2023-05-16T01:04:10;9.55;;;2.08;;
23720;SDS011;42950;52.134;5.578;2023-05-16T01:06:36;15.15;;;2.50;;
23720;SDS011;42950;52.134;5.578;2023-05-16T01:09:02;12.63;;;2.42;;
23720;SDS011;42950;52.134;5.578;2023-05-16T01:17:12;7.82;;;2.05;;
23720;SDS011;42950;52.134;5.578;2023-05-16T01:20:02;9.02;;;2.15;;
23720;SDS011;42950;52.134;5.578;2023-05-16T01:25:39;12.05;;;2.28;;
23720;SDS011;42950;52.134;5.578;2023-05-16T01:28:45;12.30;;;2.17;;
23720;SDS011;42950;52.134;5.578;2023-05-16T01:31:12;10.52;;;2.00;;
23720;SDS011;42950;52.134;5.578;2023-05-16T01:33:38;15.52;;;2.20;;
23720;SDS011;42950;52.134;5.578;2023-05-16T01:38:38;8.85;;;1.70;;
23720;SDS011;42950;52.134;5.578;2023-05-16T01:43:58;16.67;;;2.60;;
23720;SDS011;42950;52.134;5.578;2023-05-16T01:46:26;8.57;;;1.95;;
23720;SDS011;42950;52.134;5.578;2023-05-16T01:51:36;13.23;;;2.65;;
23720;SDS011;42950;52.134;5.578;2023-05-16T01:54:05;11.52;;;2.30;;
23720;SDS011;42950;52.134;5.578;2023-05-16T01:56:35;11.95;;;2.58;;
23720;SDS011;42950;52.134;5.578;2023-05-16T01:59:01;15.40;;;2.58;;
23720;SDS011;42950;52.134;5.578;2023-05-16T02:01:29;12.05;;;2.47;;
23720;SDS011;42950;52.134;5.578;2023-05-16T02:03:56;11.55;;;2.60;;
23720;SDS011;42950;52.134;5.578;2023-05-16T02:06:23;11.10;;;2.10;;
23720;SDS011;42950;52.134;5.578;2023-05-16T02:08:50;20.17;;;2.42;;
23720;SDS011;42950;52.134;5.578;2023-05-16T02:11:18;10.95;;;2.50;;
23720;SDS011;42950;52.134;5.578;2023-05-16T02:13:45;9.98;;;2.40;;
23720;SDS011;42950;52.134;5.578;2023-05-16T02:16:10;13.20;;;3.03;;
23720;SDS011;42950;52.134;5.578;2023-05-16T02:18:36;12.80;;;2.65;;
23720;SDS011;42950;52.134;5.578;2023-05-16T02:21:03;15.73;;;2.55;;
23720;SDS011;42950;52.134;5.578;2023-05-16T02:23:28;12.88;;;2.58;;
23720;SDS011;42950;52.134;5.578;2023-05-16T02:25:55;8.75;;;2.60;;
23720;SDS011;42950;52.134;5.578;2023-05-16T02:28:21;11.75;;;2.03;;
23720;SDS011;42950;52.134;5.578;2023-05-16T02:30:54;11.70;;;2.38;;
23720;SDS011;42950;52.134;5.578;2023-05-16T02:33:21;13.85;;;2.08;;
23720;SDS011;42950;52.134;5.578;2023-05-16T02:35:47;11.07;;;2.30;;
23720;SDS011;42950;52.134;5.578;2023-05-16T02:38:12;12.18;;;2.13;;
23720;SDS011;42950;52.134;5.578;2023-05-16T02:40:41;12.05;;;2.20;;
23720;SDS011;42950;52.134;5.578;2023-05-16T02:43:07;10.70;;;2.22;;
23720;SDS011;42950;52.134;5.578;2023-05-16T02:45:33;14.38;;;2.42;;
23720;SDS011;42950;52.134;5.578;2023-05-16T02:47:59;10.77;;;2.10;;
23720;SDS011;42950;52.134;5.578;2023-05-16T02:50:24;13.43;;;1.90;;
23720;SDS011;42950;52.134;5.578;2023-05-16T02:52:50;16.65;;;2.45;;
23720;SDS011;42950;52.134;5.578;2023-05-16T02:55:16;10.73;;;2.03;;
23720;SDS011;42950;52.134;5.578;2023-05-16T02:57:41;10.02;;;2.25;;
23720;SDS011;42950;52.134;5.578;2023-05-16T03:00:07;10.80;;;1.83;;
23720;SDS011;42950;52.134;5.578;2023-05-16T03:02:36;11.30;;;2.10;;
23720;SDS011;42950;52.134;5.578;2023-05-16T03:05:02;16.23;;;2.72;;
23720;SDS011;42950;52.134;5.578;2023-05-16T03:07:30;10.75;;;2.08;;
23720;SDS011;42950;52.134;5.578;2023-05-16T03:09:56;11.70;;;2.10;;
23720;SDS011;42950;52.134;5.578;2023-05-16T03:12:21;9.27;;;1.70;;
23720;SDS011;42950;52.134;5.578;2023-05-16T03:14:47;15.52;;;2.35;;
23720;SDS011;42950;52.134;5.578;2023-05-16T03:17:13;14.02;;;2.22;;
23720;SDS011;42950;52.134;5.578;2023-05-16T03:19:38;10.23;;;1.88;;
23720;SDS011;42950;52.134;5.578;2023-05-16T03:22:04;12.38;;;2.25;;
23720;SDS011;42950;52.134;5.578;2023-05-16T03:24:31;10.25;;;2.00;;
23720;SDS011;42950;52.134;5.578;2023-05-16T03:26:56;11.05;;;2.08;;
23720;SDS011;42950;52.134;5.578;2023-05-16T03:29:23;12.80;;;1.95;;
23720;SDS011;42950;52.134;5.578;2023-05-16T03:31:49;18.25;;;2.20;;
23720;SDS011;42950;52.134;5.578;2023-05-16T03:34:15;11.10;;;2.30;;
23720;SDS011;42950;52.134;5.578;2023-05-16T03:36:41;10.50;;;1.90;;
23720;SDS011;42950;52.134;5.578;2023-05-16T03:39:06;11.27;;;2.03;;
23720;SDS011;42950;52.134;5.578;2023-05-16T03:41:32;11.20;;;2.17;;
23720;SDS011;42950;52.134;5.578;2023-05-16T03:43:59;12.90;;;2.10;;
23720;SDS011;42950;52.134;5.578;2023-05-16T03:46:24;14.05;;;2.35;;
23720;SDS011;42950;52.134;5.578;2023-05-16T03:48:50;9.27;;;2.08;;
23720;SDS011;42950;52.134;5.578;2023-05-16T03:51:16;13.05;;;2.08;;
23720;SDS011;42950;52.134;5.578;2023-05-16T03:53:42;12.30;;;2.10;;
23720;SDS011;42950;52.134;5.578;2023-05-16T03:56:08;14.13;;;2.45;;
23720;SDS011;42950;52.134;5.578;2023-05-16T03:58:35;10.77;;;2.40;;
23720;SDS011;42950;52.134;5.578;2023-05-16T04:01:00;14.60;;;2.17;;
23720;SDS011;42950;52.134;5.578;2023-05-16T04:03:26;12.35;;;2.08;;
23720;SDS011;42950;52.134;5.578;2023-05-16T04:05:53;12.48;;;2.22;;
23720;SDS011;42950;52.134;5.578;2023-05-16T04:08:20;15.65;;;2.83;;
23720;SDS011;42950;52.134;5.578;2023-05-16T04:10:46;10.05;;;2.25;;
23720;SDS011;42950;52.134;5.578;2023-05-16T04:13:11;16.25;;;2.72;;
23720;SDS011;42950;52.134;5.578;2023-05-16T04:15:39;10.98;;;1.80;;
23720;SDS011;42950;52.134;5.578;2023-05-16T04:18:04;11.90;;;1.80;;
23720;SDS011;42950;52.134;5.578;2023-05-16T04:20:30;10.93;;;2.17;;
23720;SDS011;42950;52.134;5.578;2023-05-16T04:22:56;11.73;;;2.40;;
23720;SDS011;42950;52.134;5.578;2023-05-16T04:25:21;11.63;;;2.45;;
23720;SDS011;42950;52.134;5.578;2023-05-16T04:27:47;8.10;;;2.10;;
23720;SDS011;42950;52.134;5.578;2023-05-16T04:30:13;10.70;;;1.75;;
23720;SDS011;42950;52.134;5.578;2023-05-16T04:32:39;12.23;;;2.33;;
23720;SDS011;42950;52.134;5.578;2023-05-16T04:35:06;11.57;;;2.40;;
23720;SDS011;42950;52.134;5.578;2023-05-16T04:37:33;11.63;;;2.67;;
23720;SDS011;42950;52.134;5.578;2023-05-16T04:40:00;13.02;;;2.65;;
23720;SDS011;42950;52.134;5.578;2023-05-16T04:42:26;10.57;;;2.05;;
23720;SDS011;42950;52.134;5.578;2023-05-16T04:44:51;13.57;;;2.30;;
23720;SDS011;42950;52.134;5.578;2023-05-16T04:47:17;9.70;;;2.08;;
23720;SDS011;42950;52.134;5.578;2023-05-16T04:49:45;15.93;;;2.35;;
23720;SDS011;42950;52.134;5.578;2023-05-16T04:52:10;8.82;;;2.08;;
23720;SDS011;42950;52.134;5.578;2023-05-16T04:54:39;7.10;;;1.88;;
23720;SDS011;42950;52.134;5.578;2023-05-16T04:57:04;8.43;;;1.90;;
23720;SDS011;42950;52.134;5.578;2023-05-16T04:59:30;7.28;;;1.95;;
23720;SDS011;42950;52.134;5.578;2023-05-16T05:01:56;10.10;;;2.63;;
23720;SDS011;42950;52.134;5.578;2023-05-16T05:04:23;11.13;;;2.00;;
23720;SDS011;42950;52.134;5.578;2023-05-16T05:06:49;11.98;;;2.15;;
23720;SDS011;42950;52.134;5.578;2023-05-16T05:09:15;9.75;;;2.10;;
23720;SDS011;42950;52.134;5.578;2023-05-16T05:11:41;14.23;;;2.65;;
23720;SDS011;42950;52.134;5.578;2023-05-16T05:14:06;10.77;;;1.92;;
23720;SDS011;42950;52.134;5.578;2023-05-16T05:16:32;12.45;;;2.40;;
23720;SDS011;42950;52.134;5.578;2023-05-16T05:18:58;11.10;;;2.10;;
23720;SDS011;42950;52.134;5.578;2023-05-16T05:21:25;20.52;;;2.67;;
23720;SDS011;42950;52.134;5.578;2023-05-16T05:23:50;14.73;;;2.35;;
23720;SDS011;42950;52.134;5.578;2023-05-16T05:26:16;7.60;;;1.85;;
23720;SDS011;42950;52.134;5.578;2023-05-16T05:28:43;9.20;;;2.20;;
23720;SDS011;42950;52.134;5.578;2023-05-16T05:31:09;13.60;;;2.10;;
23720;SDS011;42950;52.134;5.578;2023-05-16T05:33:34;13.13;;;2.33;;
23720;SDS011;42950;52.134;5.578;2023-05-16T05:36:00;9.90;;;2.38;;
23720;SDS011;42950;52.134;5.578;2023-05-16T05:38:25;10.50;;;2.60;;
23720;SDS011;42950;52.134;5.578;2023-05-16T05:40:51;13.13;;;2.67;;
23720;SDS011;42950;52.134;5.578;2023-05-16T05:43:16;10.25;;;1.73;;
23720;SDS011;42950;52.134;5.578;2023-05-16T05:45:42;12.77;;;2.20;;
23720;SDS011;42950;52.134;5.578;2023-05-16T05:48:08;9.23;;;1.52;;
23720;SDS011;42950;52.134;5.578;2023-05-16T05:50:36;8.60;;;1.95;;
23720;SDS011;42950;52.134;5.578;2023-05-16T05:53:02;8.35;;;1.60;;
23720;SDS011;42950;52.134;5.578;2023-05-16T05:55:27;12.27;;;1.98;;
23720;SDS011;42950;52.134;5.578;2023-05-16T05:57:54;10.45;;;2.33;;
23720;SDS011;42950;52.134;5.578;2023-05-16T06:00:19;9.48;;;1.60;;
23720;SDS011;42950;52.134;5.578;2023-05-16T06:02:45;11.43;;;1.90;;
23720;SDS011;42950;52.134;5.578;2023-05-16T06:05:11;11.00;;;1.77;;
23720;SDS011;42950;52.134;5.578;2023-05-16T06:07:36;9.98;;;1.85;;
23720;SDS011;42950;52.134;5.578;2023-05-16T06:10:02;11.82;;;1.80;;
23720;SDS011;42950;52.134;5.578;2023-05-16T06:12:29;8.35;;;1.40;;
23720;SDS011;42950;52.134;5.578;2023-05-16T06:14:57;10.40;;;1.65;;
23720;SDS011;42950;52.134;5.578;2023-05-16T06:17:25;11.77;;;1.90;;
23720;SDS011;42950;52.134;5.578;2023-05-16T06:19:50;8.77;;;1.55;;
23720;SDS011;42950;52.134;5.578;2023-05-16T06:22:17;8.93;;;1.85;;
23720;SDS011;42950;52.134;5.578;2023-05-16T06:24:43;10.13;;;2.30;;
23720;SDS011;42950;52.134;5.578;2023-05-16T06:27:08;11.73;;;1.63;;
23720;SDS011;42950;52.134;5.578;2023-05-16T06:29:34;14.77;;;1.83;;
23720;SDS011;42950;52.134;5.578;2023-05-16T06:32:00;11.07;;;1.63;;
23720;SDS011;42950;52.134;5.578;2023-05-16T06:34:26;12.45;;;1.65;;
23720;SDS011;42950;52.134;5.578;2023-05-16T06:36:55;10.15;;;1.73;;
23720;SDS011;42950;52.134;5.578;2023-05-16T06:39:22;9.05;;;1.75;;
23720;SDS011;42950;52.134;5.578;2023-05-16T06:41:47;8.05;;;1.67;;
23720;SDS011;42950;52.134;5.578;2023-05-16T06:44:14;11.07;;;1.80;;
23720;SDS011;42950;52.134;5.578;2023-05-16T06:46:39;9.00;;;1.60;;
23720;SDS011;42950;52.134;5.578;2023-05-16T06:49:05;9.10;;;1.35;;
23720;SDS011;42950;52.134;5.578;2023-05-16T06:51:31;9.73;;;1.70;;
23720;SDS011;42950;52.134;5.578;2023-05-16T06:53:57;9.68;;;1.52;;
23720;SDS011;42950;52.134;5.578;2023-05-16T06:56:22;10.93;;;1.60;;
23720;SDS011;42950;52.134;5.578;2023-05-16T06:58:48;8.48;;;1.80;;
23720;SDS011;42950;52.134;5.578;2023-05-16T07:01:14;6.55;;;1.30;;
23720;SDS011;42950;52.134;5.578;2023-05-16T07:03:40;11.93;;;1.85;;
23720;SDS011;42950;52.134;5.578;2023-05-16T07:06:06;8.10;;;1.70;;
23720;SDS011;42950;52.134;5.578;2023-05-16T07:08:33;9.95;;;1.58;;
23720;SDS011;42950;52.134;5.578;2023-05-16T07:11:00;7.70;;;1.40;;
23720;SDS011;42950;52.134;5.578;2023-05-16T07:13:25;7.93;;;1.58;;
23720;SDS011;42950;52.134;5.578;2023-05-16T07:15:53;6.43;;;1.50;;
23720;SDS011;42950;52.134;5.578;2023-05-16T07:18:19;6.10;;;1.45;;
23720;SDS011;42950;52.134;5.578;2023-05-16T07:20:45;6.13;;;1.40;;
23720;SDS011;42950;52.134;5.578;2023-05-16T07:23:11;5.35;;;1.30;;
23720;SDS011;42950;52.134;5.578;2023-05-16T07:25:37;8.75;;;1.90;;
23720;SDS011;42950;52.134;5.578;2023-05-16T07:28:03;12.32;;;2.08;;
23720;SDS011;42950;52.134;5.578;2023-05-16T07:30:28;8.27;;;1.30;;
23720;SDS011;42950;52.134;5.578;2023-05-16T07:32:56;8.90;;;1.20;;
23720;SDS011;42950;52.134;5.578;2023-05-16T07:35:22;7.28;;;1.45;;
23720;SDS011;42950;52.134;5.578;2023-05-16T07:37:48;6.85;;;1.17;;
23720;SDS011;42950;52.134;5.578;2023-05-16T07:40:13;10.43;;;1.92;;
23720;SDS011;42950;52.134;5.578;2023-05-16T07:42:39;7.55;;;1.00;;
23720;SDS011;42950;52.134;5.578;2023-05-16T07:45:05;5.20;;;1.20;;
23720;SDS011;42950;52.134;5.578;2023-05-16T07:47:33;8.38;;;1.48;;
23720;SDS011;42950;52.134;5.578;2023-05-16T07:49:59;8.10;;;1.60;;
23720;SDS011;42950;52.134;5.578;2023-05-16T07:52:25;6.32;;;1.23;;
23720;SDS011;42950;52.134;5.578;2023-05-16T07:54:51;6.78;;;1.65;;
23720;SDS011;42950;52.134;5.578;2023-05-16T07:57:17;7.75;;;1.40;;
23720;SDS011;42950;52.134;5.578;2023-05-16T07:59:43;3.95;;;0.70;;
23720;SDS011;42950;52.134;5.578;2023-05-16T08:02:10;6.18;;;1.17;;
23720;SDS011;42950;52.134;5.578;2023-05-16T08:04:45;2.90;;;0.70;;
23720;SDS011;42950;52.134;5.578;2023-05-16T08:07:12;5.22;;;1.10;;
23720;SDS011;42950;52.134;5.578;2023-05-16T08:09:38;2.85;;;0.82;;
23720;SDS011;42950;52.134;5.578;2023-05-16T08:12:04;4.78;;;1.20;;
23720;SDS011;42950;52.134;5.578;2023-05-16T08:14:30;2.50;;;0.57;;
23720;SDS011;42950;52.134;5.578;2023-05-16T08:16:57;1.27;;;0.60;;
23720;SDS011;42950;52.134;5.578;2023-05-16T08:19:23;2.00;;;0.70;;
23720;SDS011;42950;52.134;5.578;2023-05-16T08:21:49;4.00;;;0.70;;
23720;SDS011;42950;52.134;5.578;2023-05-16T08:24:15;4.07;;;1.45;;
23720;SDS011;42950;52.134;5.578;2023-05-16T08:26:40;7.10;;;1.08;;
23720;SDS011;42950;52.134;5.578;2023-05-16T08:29:06;4.30;;;0.95;;
23720;SDS011;42950;52.134;5.578;2023-05-16T08:31:32;6.13;;;0.95;;
23720;SDS011;42950;52.134;5.578;2023-05-16T08:33:58;4.35;;;1.20;;
23720;SDS011;42950;52.134;5.578;2023-05-16T08:36:25;5.13;;;1.00;;
23720;SDS011;42950;52.134;5.578;2023-05-16T08:38:52;5.28;;;1.10;;
23720;SDS011;42950;52.134;5.578;2023-05-16T08:41:17;7.18;;;1.35;;
23720;SDS011;42950;52.134;5.578;2023-05-16T08:43:46;4.55;;;1.13;;
23720;SDS011;42950;52.134;5.578;2023-05-16T08:46:12;5.93;;;1.33;;
23720;SDS011;42950;52.134;5.578;2023-05-16T08:48:38;6.75;;;1.30;;
23720;SDS011;42950;52.134;5.578;2023-05-16T08:51:06;5.65;;;1.20;;
23720;SDS011;42950;52.134;5.578;2023-05-16T08:53:38;6.47;;;1.10;;
23720;SDS011;42950;52.134;5.578;2023-05-16T08:56:08;9.13;;;1.25;;
23720;SDS011;42950;52.134;5.578;2023-05-16T08:58:36;5.85;;;1.10;;
23720;SDS011;42950;52.134;5.578;2023-05-16T09:01:03;4.47;;;0.77;;
23720;SDS011;42950;52.134;5.578;2023-05-16T09:03:33;7.80;;;1.30;;
23720;SDS011;42950;52.134;5.578;2023-05-16T09:06:01;6.85;;;1.33;;
23720;SDS011;42950;52.134;5.578;2023-05-16T09:08:29;4.60;;;1.00;;
23720;SDS011;42950;52.134;5.578;2023-05-16T09:10:56;5.35;;;1.00;;
23720;SDS011;42950;52.134;5.578;2023-05-16T09:13:23;6.53;;;0.90;;
23720;SDS011;42950;52.134;5.578;2023-05-16T09:16:11;6.63;;;0.90;;
23720;SDS011;42950;52.134;5.578;2023-05-16T09:18:40;4.07;;;1.10;;
23720;SDS011;42950;52.134;5.578;2023-05-16T09:21:08;4.07;;;0.70;;
23720;SDS011;42950;52.134;5.578;2023-05-16T09:23:35;3.95;;;0.70;;
23720;SDS011;42950;52.134;5.578;2023-05-16T09:26:01;3.17;;;0.95;;
23720;SDS011;42950;52.134;5.578;2023-05-16T09:28:29;5.97;;;1.15;;
23720;SDS011;42950;52.134;5.578;2023-05-16T09:30:56;7.32;;;1.30;;
23720;SDS011;42950;52.134;5.578;2023-05-16T09:33:27;8.20;;;1.25;;
23720;SDS011;42950;52.134;5.578;2023-05-16T09:35:57;8.35;;;1.50;;
23720;SDS011;42950;52.134;5.578;2023-05-16T09:38:23;7.60;;;1.10;;
23720;SDS011;42950;52.134;5.578;2023-05-16T09:40:50;4.97;;;1.00;;
23720;SDS011;42950;52.134;5.578;2023-05-16T09:43:16;7.57;;;1.25;;
23720;SDS011;42950;52.134;5.578;2023-05-16T09:45:45;6.28;;;0.90;;
23720;SDS011;42950;52.134;5.578;2023-05-16T09:48:12;4.72;;;0.90;;
23720;SDS011;42950;52.134;5.578;2023-05-16T09:50:40;5.07;;;0.80;;
23720;SDS011;42950;52.134;5.578;2023-05-16T09:53:12;5.63;;;1.00;;
23720;SDS011;42950;52.134;5.578;2023-05-16T09:55:38;2.85;;;0.85;;
23720;SDS011;42950;52.134;5.578;2023-05-16T09:58:04;6.25;;;0.90;;
23720;SDS011;42950;52.134;5.578;2023-05-16T10:00:30;5.88;;;1.23;;
23720;SDS011;42950;52.134;5.578;2023-05-16T10:02:59;7.50;;;1.00;;
23720;SDS011;42950;52.134;5.578;2023-05-16T10:05:27;6.18;;;1.00;;
23720;SDS011;42950;52.134;5.578;2023-05-16T10:07:56;7.03;;;1.20;;
23720;SDS011;42950;52.134;5.578;2023-05-16T10:10:23;3.65;;;1.13;;
23720;SDS011;42950;52.134;5.578;2023-05-16T10:12:49;4.90;;;1.08;;
23720;SDS011;42950;52.134;5.578;2023-05-16T10:15:16;2.58;;;0.75;;
23720;SDS011;42950;52.134;5.578;2023-05-16T10:17:44;5.20;;;1.02;;
23720;SDS011;42950;52.134;5.578;2023-05-16T10:20:12;5.68;;;1.17;;
23720;SDS011;42950;52.134;5.578;2023-05-16T10:22:44;3.95;;;0.85;;
23720;SDS011;42950;52.134;5.578;2023-05-16T10:27:46;4.72;;;1.13;;
23720;SDS011;42950;52.134;5.578;2023-05-16T10:30:13;5.40;;;1.20;;
23720;SDS011;42950;52.134;5.578;2023-05-16T10:32:41;4.10;;;1.00;;
23720;SDS011;42950;52.134;5.578;2023-05-16T10:35:07;4.68;;;1.10;;
23720;SDS011;42950;52.134;5.578;2023-05-16T10:37:35;6.45;;;1.00;;
23720;SDS011;42950;52.134;5.578;2023-05-16T10:40:02;3.92;;;0.90;;
23720;SDS011;42950;52.134;5.578;2023-05-16T10:42:33;4.88;;;1.00;;
23720;SDS011;42950;52.134;5.578;2023-05-16T10:47:55;7.22;;;1.38;;
23720;SDS011;42950;52.134;5.578;2023-05-16T10:50:37;3.88;;;0.93;;
23720;SDS011;42950;52.134;5.578;2023-05-16T10:53:11;5.70;;;1.60;;
23720;SDS011;42950;52.134;5.578;2023-05-16T10:56:23;3.78;;;1.08;;
23720;SDS011;42950;52.134;5.578;2023-05-16T11:01:18;5.60;;;1.05;;
23720;SDS011;42950;52.134;5.578;2023-05-16T11:14:03;5.32;;;1.23;;
23720;SDS011;42950;52.134;5.578;2023-05-16T11:16:28;4.45;;;1.15;;
23720;SDS011;42950;52.134;5.578;2023-05-16T11:19:06;3.75;;;0.90;;
23720;SDS011;42950;52.134;5.578;2023-05-16T11:24:32;2.35;;;0.73;;
23720;SDS011;42950;52.134;5.578;2023-05-16T11:26:59;4.88;;;1.27;;
23720;SDS011;42950;52.134;5.578;2023-05-16T11:29:27;6.55;;;1.33;;
23720;SDS011;42950;52.134;5.578;2023-05-16T11:31:58;5.53;;;1.20;;
23720;SDS011;42950;52.134;5.578;2023-05-16T11:34:25;5.28;;;0.90;;
23720;SDS011;42950;52.134;5.578;2023-05-16T11:36:51;8.43;;;1.17;;
23720;SDS011;42950;52.134;5.578;2023-05-16T11:39:19;3.25;;;0.90;;
23720;SDS011;42950;52.134;5.578;2023-05-16T11:41:45;5.95;;;1.20;;
23720;SDS011;42950;52.134;5.578;2023-05-16T11:44:11;4.68;;;1.20;;
23720;SDS011;42950;52.134;5.578;2023-05-16T11:46:40;3.90;;;0.77;;
23720;SDS011;42950;52.134;5.578;2023-05-16T11:49:06;5.50;;;0.82;;
23720;SDS011;42950;52.134;5.578;2023-05-16T11:51:39;4.57;;;0.90;;
23720;SDS011;42950;52.134;5.578;2023-05-16T11:54:05;6.13;;;0.98;;
23720;SDS011;42950;52.134;5.578;2023-05-16T11:56:36;9.25;;;1.45;;
23720;SDS011;42950;52.134;5.578;2023-05-16T11:59:03;6.43;;;0.90;;
23720;SDS011;42950;52.134;5.578;2023-05-16T12:01:36;2.53;;;0.80;;
23720;SDS011;42950;52.134;5.578;2023-05-16T12:04:13;6.32;;;1.05;;
23720;SDS011;42950;52.134;5.578;2023-05-16T12:06:39;6.75;;;1.08;;
23720;SDS011;42950;52.134;5.578;2023-05-16T12:09:12;6.80;;;1.45;;
23720;SDS011;42950;52.134;5.578;2023-05-16T12:11:40;8.80;;;1.30;;
23720;SDS011;42950;52.134;5.578;2023-05-16T12:14:07;3.10;;;0.77;;
23720;SDS011;42950;52.134;5.578;2023-05-16T12:16:36;7.93;;;1.45;;
23720;SDS011;42950;52.134;5.578;2023-05-16T12:19:07;4.40;;;0.90;;
23720;SDS011;42950;52.134;5.578;2023-05-16T12:21:33;6.35;;;1.13;;
23720;SDS011;42950;52.134;5.578;2023-05-16T12:24:00;6.10;;;0.95;;
23720;SDS011;42950;52.134;5.578;2023-05-16T12:26:29;4.07;;;1.20;;
23720;SDS011;42950;52.134;5.578;2023-05-16T12:28:57;7.25;;;1.13;;
23720;SDS011;42950;52.134;5.578;2023-05-16T12:31:27;7.78;;;1.40;;
23720;SDS011;42950;52.134;5.578;2023-05-16T12:33:55;5.13;;;1.10;;
23720;SDS011;42950;52.134;5.578;2023-05-16T12:36:22;3.33;;;1.00;;
23720;SDS011;42950;52.134;5.578;2023-05-16T12:38:48;3.65;;;1.00;;
23720;SDS011;42950;52.134;5.578;2023-05-16T12:41:19;6.28;;;1.20;;
23720;SDS011;42950;52.134;5.578;2023-05-16T12:43:46;5.03;;;1.10;;
23720;SDS011;42950;52.134;5.578;2023-05-16T12:46:13;5.53;;;1.35;;
23720;SDS011;42950;52.134;5.578;2023-05-16T12:48:39;3.97;;;1.08;;
23720;SDS011;42950;52.134;5.578;2023-05-16T12:51:11;5.82;;;1.25;;
23720;SDS011;42950;52.134;5.578;2023-05-16T12:53:43;4.55;;;1.08;;
23720;SDS011;42950;52.134;5.578;2023-05-16T12:56:11;8.02;;;1.42;;
23720;SDS011;42950;52.134;5.578;2023-05-16T12:58:39;4.57;;;1.25;;
23720;SDS011;42950;52.134;5.578;2023-05-16T13:01:05;6.07;;;1.50;;
23720;SDS011;42950;52.134;5.578;2023-05-16T13:03:32;5.20;;;1.23;;
23720;SDS011;42950;52.134;5.578;2023-05-16T13:05:58;7.03;;;1.70;;
23720;SDS011;42950;52.134;5.578;2023-05-16T13:08:24;7.10;;;1.20;;
23720;SDS011;42950;52.134;5.578;2023-05-16T13:10:51;3.85;;;1.08;;
23720;SDS011;42950;52.134;5.578;2023-05-16T13:13:16;3.85;;;1.25;;
23720;SDS011;42950;52.134;5.578;2023-05-16T13:15:46;7.97;;;1.55;;
23720;SDS011;42950;52.134;5.578;2023-05-16T13:18:12;10.30;;;1.40;;
23720;SDS011;42950;52.134;5.578;2023-05-16T13:20:38;5.85;;;1.10;;
23720;SDS011;42950;52.134;5.578;2023-05-16T13:23:04;9.02;;;1.48;;
23720;SDS011;42950;52.134;5.578;2023-05-16T13:25:33;5.90;;;1.75;;
23720;SDS011;42950;52.134;5.578;2023-05-16T13:27:59;8.05;;;1.40;;
23720;SDS011;42950;52.134;5.578;2023-05-16T13:30:24;9.85;;;1.75;;
23720;SDS011;42950;52.134;5.578;2023-05-16T13:32:51;5.25;;;1.40;;
23720;SDS011;42950;52.134;5.578;2023-05-16T13:35:17;9.05;;;1.75;;
23720;SDS011;42950;52.134;5.578;2023-05-16T13:37:43;5.05;;;1.10;;
23720;SDS011;42950;52.134;5.578;2023-05-16T13:40:09;7.85;;;1.50;;
23720;SDS011;42950;52.134;5.578;2023-05-16T13:42:36;4.85;;;1.27;;
23720;SDS011;42950;52.134;5.578;2023-05-16T13:45:03;5.05;;;1.08;;
23720;SDS011;42950;52.134;5.578;2023-05-16T13:47:29;6.90;;;1.38;;
23720;SDS011;42950;52.134;5.578;2023-05-16T13:49:56;9.55;;;1.83;;
23720;SDS011;42950;52.134;5.578;2023-05-16T13:52:23;9.52;;;1.73;;
23720;SDS011;42950;52.134;5.578;2023-05-16T13:54:48;9.98;;;1.58;;
23720;SDS011;42950;52.134;5.578;2023-05-16T13:57:14;6.28;;;1.13;;
23720;SDS011;42950;52.134;5.578;2023-05-16T13:59:42;8.20;;;1.23;;
23720;SDS011;42950;52.134;5.578;2023-05-16T14:02:08;7.10;;;1.40;;
23720;SDS011;42950;52.134;5.578;2023-05-16T14:04:33;7.03;;;1.60;;
23720;SDS011;42950;52.134;5.578;2023-05-16T14:07:00;6.40;;;1.45;;
23720;SDS011;42950;52.134;5.578;2023-05-16T14:09:26;5.22;;;1.40;;
23720;SDS011;42950;52.134;5.578;2023-05-16T14:11:51;11.55;;;1.65;;
23720;SDS011;42950;52.134;5.578;2023-05-16T14:14:17;7.57;;;1.70;;
23720;SDS011;42950;52.134;5.578;2023-05-16T14:16:43;7.43;;;1.60;;
23720;SDS011;42950;52.134;5.578;2023-05-16T14:19:10;7.38;;;1.38;;
23720;SDS011;42950;52.134;5.578;2023-05-16T14:21:37;4.40;;;1.42;;
23720;SDS011;42950;52.134;5.578;2023-05-16T14:24:03;5.00;;;1.38;;
23720;SDS011;42950;52.134;5.578;2023-05-16T14:26:29;8.48;;;1.40;;
23720;SDS011;42950;52.134;5.578;2023-05-16T14:28:57;6.60;;;1.40;;
23720;SDS011;42950;52.134;5.578;2023-05-16T14:31:22;4.78;;;1.33;;
23720;SDS011;42950;52.134;5.578;2023-05-16T14:33:48;7.40;;;1.20;;
23720;SDS011;42950;52.134;5.578;2023-05-16T14:36:14;9.65;;;1.63;;
23720;SDS011;42950;52.134;5.578;2023-05-16T14:38:40;6.32;;;1.10;;
23720;SDS011;42950;52.134;5.578;2023-05-16T14:41:06;4.10;;;1.27;;
23720;SDS011;42950;52.134;5.578;2023-05-16T14:43:31;7.35;;;1.20;;
23720;SDS011;42950;52.134;5.578;2023-05-16T14:45:57;4.28;;;1.27;;
23720;SDS011;42950;52.134;5.578;2023-05-16T14:48:23;6.05;;;1.33;;
23720;SDS011;42950;52.134;5.578;2023-05-16T14:50:48;5.20;;;1.38;;
23720;SDS011;42950;52.134;5.578;2023-05-16T14:53:15;5.75;;;1.58;;
23720;SDS011;42950;52.134;5.578;2023-05-16T14:55:41;6.40;;;1.65;;
23720;SDS011;42950;52.134;5.578;2023-05-16T14:58:06;5.65;;;1.20;;
23720;SDS011;42950;52.134;5.578;2023-05-16T15:00:32;8.32;;;1.65;;
23720;SDS011;42950;52.134;5.578;2023-05-16T15:02:59;6.25;;;1.63;;
23720;SDS011;42950;52.134;5.578;2023-05-16T15:05:24;4.68;;;1.23;;
23720;SDS011;42950;52.134;5.578;2023-05-16T15:07:51;6.63;;;1.45;;
23720;SDS011;42950;52.134;5.578;2023-05-16T15:10:17;5.40;;;1.02;;
23720;SDS011;42950;52.134;5.578;2023-05-16T15:12:42;7.30;;;1.30;;
23720;SDS011;42950;52.134;5.578;2023-05-16T15:15:08;6.18;;;1.20;;
23720;SDS011;42950;52.134;5.578;2023-05-16T15:17:38;6.20;;;1.40;;
23720;SDS011;42950;52.134;5.578;2023-05-16T15:20:06;6.15;;;1.20;;